sensor_id;sensor_type;location;lat;lon;timestamp;P1;durP1;ratioP1;P2;durP2;ratioP2
70420;SDS011;57848;51.938;15.520;2022-11-24T00:00:52;127.75;;;37.85;;
70420;SDS011;57848;51.938;15.520;2022-11-24T00:03:18;114.23;;;35.00;;
70420;SDS011;57848;51.938;15.520;2022-11-24T00:05:43;119.50;;;37.03;;
70420;SDS011;57848;51.938;15.520;2022-11-24T00:08:09;119.07;;;39.83;;
70420;SDS011;57848;51.938;15.520;2022-11-24T00:10:35;128.48;;;38.35;;
70420;SDS011;57848;51.938;15.520;2022-11-24T00:13:01;123.37;;;37.20;;
70420;SDS011;57848;51.938;15.520;2022-11-24T00:15:26;119.20;;;38.03;;
70420;SDS011;57848;51.938;15.520;2022-11-24T00:17:51;129.13;;;40.77;;
70420;SDS011;57848;51.938;15.520;2022-11-24T00:20:17;124.87;;;39.13;;
70420;SDS011;57848;51.938;15.520;2022-11-24T00:22:42;135.80;;;40.00;;
70420;SDS011;57848;51.938;15.520;2022-11-24T00:25:08;134.90;;;38.97;;
70420;SDS011;57848;51.938;15.520;2022-11-24T00:27:33;136.50;;;42.10;;
70420;SDS011;57848;51.938;15.520;2022-11-24T00:29:58;122.17;;;39.27;;
70420;SDS011;57848;51.938;15.520;2022-11-24T00:32:26;136.60;;;44.33;;
70420;SDS011;57848;51.938;15.520;2022-11-24T00:34:53;144.98;;;38.50;;
70420;SDS011;57848;51.938;15.520;2022-11-24T00:37:18;132.17;;;41.37;;
70420;SDS011;57848;51.938;15.520;2022-11-24T00:39:43;142.85;;;40.63;;
70420;SDS011;57848;51.938;15.520;2022-11-24T00:42:09;126.30;;;37.27;;
70420;SDS011;57848;51.938;15.520;2022-11-24T00:44:34;142.13;;;41.87;;
70420;SDS011;57848;51.938;15.520;2022-11-24T00:47:00;128.07;;;39.63;;
70420;SDS011;57848;51.938;15.520;2022-11-24T00:49:25;125.93;;;40.63;;
70420;SDS011;57848;51.938;15.520;2022-11-24T00:51:51;132.23;;;40.95;;
70420;SDS011;57848;51.938;15.520;2022-11-24T00:54:16;153.07;;;39.53;;
70420;SDS011;57848;51.938;15.520;2022-11-24T00:56:42;131.05;;;40.42;;
70420;SDS011;57848;51.938;15.520;2022-11-24T00:59:07;134.67;;;39.80;;
70420;SDS011;57848;51.938;15.520;2022-11-24T01:01:33;131.63;;;37.53;;
70420;SDS011;57848;51.938;15.520;2022-11-24T01:03:59;123.43;;;38.90;;
70420;SDS011;57848;51.938;15.520;2022-11-24T01:06:25;124.80;;;38.88;;
70420;SDS011;57848;51.938;15.520;2022-11-24T01:08:52;120.63;;;39.83;;
70420;SDS011;57848;51.938;15.520;2022-11-24T01:11:19;131.80;;;38.63;;
70420;SDS011;57848;51.938;15.520;2022-11-24T01:13:46;132.50;;;40.33;;
70420;SDS011;57848;51.938;15.520;2022-11-24T01:16:33;126.53;;;38.23;;
70420;SDS011;57848;51.938;15.520;2022-11-24T01:18:59;140.35;;;39.33;;
70420;SDS011;57848;51.938;15.520;2022-11-24T01:21:25;146.43;;;38.63;;
70420;SDS011;57848;51.938;15.520;2022-11-24T01:23:51;131.00;;;38.97;;
70420;SDS011;57848;51.938;15.520;2022-11-24T01:26:17;137.30;;;39.40;;
70420;SDS011;57848;51.938;15.520;2022-11-24T01:28:44;169.07;;;39.50;;
70420;SDS011;57848;51.938;15.520;2022-11-24T01:31:10;132.33;;;37.73;;
70420;SDS011;57848;51.938;15.520;2022-11-24T01:33:36;130.85;;;39.63;;
70420;SDS011;57848;51.938;15.520;2022-11-24T01:36:02;132.50;;;37.17;;
70420;SDS011;57848;51.938;15.520;2022-11-24T01:38:28;155.52;;;38.88;;
70420;SDS011;57848;51.938;15.520;2022-11-24T01:41:10;137.40;;;38.73;;
70420;SDS011;57848;51.938;15.520;2022-11-24T01:43:37;163.65;;;38.63;;
70420;SDS011;57848;51.938;15.520;2022-11-24T01:46:05;133.30;;;39.72;;
70420;SDS011;57848;51.938;15.520;2022-11-24T01:48:40;139.10;;;36.90;;
70420;SDS011;57848;51.938;15.520;2022-11-24T01:51:15;138.82;;;38.58;;
70420;SDS011;57848;51.938;15.520;2022-11-24T01:53:45;133.05;;;39.67;;
70420;SDS011;57848;51.938;15.520;2022-11-24T01:56:16;137.95;;;38.55;;
70420;SDS011;57848;51.938;15.520;2022-11-24T01:58:42;132.20;;;38.63;;
70420;SDS011;57848;51.938;15.520;2022-11-24T02:01:10;118.00;;;37.37;;
70420;SDS011;57848;51.938;15.520;2022-11-24T02:03:37;134.55;;;36.08;;
70420;SDS011;57848;51.938;15.520;2022-11-24T02:06:08;118.93;;;35.33;;
70420;SDS011;57848;51.938;15.520;2022-11-24T02:11:21;110.00;;;34.77;;
70420;SDS011;57848;51.938;15.520;2022-11-24T02:13:49;118.25;;;35.55;;
70420;SDS011;57848;51.938;15.520;2022-11-24T02:16:17;115.72;;;36.17;;
70420;SDS011;57848;51.938;15.520;2022-11-24T02:18:42;110.67;;;36.03;;
70420;SDS011;57848;51.938;15.520;2022-11-24T02:21:09;119.07;;;37.50;;
70420;SDS011;57848;51.938;15.520;2022-11-24T02:28:45;111.73;;;35.77;;
70420;SDS011;57848;51.938;15.520;2022-11-24T02:31:11;124.22;;;37.45;;
70420;SDS011;57848;51.938;15.520;2022-11-24T02:33:36;117.75;;;33.92;;
70420;SDS011;57848;51.938;15.520;2022-11-24T02:36:02;115.37;;;34.50;;
70420;SDS011;57848;51.938;15.520;2022-11-24T02:38:28;124.77;;;35.47;;
70420;SDS011;57848;51.938;15.520;2022-11-24T02:40:59;115.40;;;34.88;;
70420;SDS011;57848;51.938;15.520;2022-11-24T02:43:32;114.75;;;34.85;;
70420;SDS011;57848;51.938;15.520;2022-11-24T02:46:02;114.63;;;33.78;;
70420;SDS011;57848;51.938;15.520;2022-11-24T02:48:27;116.83;;;33.70;;
70420;SDS011;57848;51.938;15.520;2022-11-24T02:50:53;128.80;;;34.67;;
70420;SDS011;57848;51.938;15.520;2022-11-24T02:53:18;136.95;;;34.05;;
70420;SDS011;57848;51.938;15.520;2022-11-24T02:55:44;113.83;;;34.37;;
70420;SDS011;57848;51.938;15.520;2022-11-24T02:58:09;135.17;;;34.33;;
70420;SDS011;57848;51.938;15.520;2022-11-24T03:00:35;136.13;;;34.57;;
70420;SDS011;57848;51.938;15.520;2022-11-24T03:03:00;119.57;;;35.80;;
70420;SDS011;57848;51.938;15.520;2022-11-24T03:05:26;105.60;;;34.33;;
70420;SDS011;57848;51.938;15.520;2022-11-24T03:07:51;121.43;;;34.60;;
70420;SDS011;57848;51.938;15.520;2022-11-24T03:10:16;110.33;;;32.90;;
70420;SDS011;57848;51.938;15.520;2022-11-24T03:12:42;116.07;;;34.22;;
70420;SDS011;57848;51.938;15.520;2022-11-24T03:15:07;107.93;;;34.03;;
70420;SDS011;57848;51.938;15.520;2022-11-24T03:17:33;105.47;;;33.00;;
70420;SDS011;57848;51.938;15.520;2022-11-24T03:19:59;99.65;;;33.38;;
70420;SDS011;57848;51.938;15.520;2022-11-24T03:22:26;92.00;;;33.17;;
70420;SDS011;57848;51.938;15.520;2022-11-24T03:24:51;104.90;;;32.87;;
70420;SDS011;57848;51.938;15.520;2022-11-24T03:27:17;125.30;;;35.75;;
70420;SDS011;57848;51.938;15.520;2022-11-24T03:29:42;107.33;;;34.70;;
70420;SDS011;57848;51.938;15.520;2022-11-24T03:32:08;118.80;;;32.47;;
70420;SDS011;57848;51.938;15.520;2022-11-24T03:34:33;134.20;;;34.73;;
70420;SDS011;57848;51.938;15.520;2022-11-24T03:36:58;157.30;;;34.37;;
70420;SDS011;57848;51.938;15.520;2022-11-24T03:39:24;158.13;;;36.73;;
70420;SDS011;57848;51.938;15.520;2022-11-24T03:41:49;114.70;;;34.50;;
70420;SDS011;57848;51.938;15.520;2022-11-24T03:44:18;116.90;;;35.25;;
70420;SDS011;57848;51.938;15.520;2022-11-24T03:46:43;114.97;;;35.77;;
70420;SDS011;57848;51.938;15.520;2022-11-24T03:49:08;114.10;;;35.83;;
70420;SDS011;57848;51.938;15.520;2022-11-24T03:51:34;125.20;;;36.73;;
70420;SDS011;57848;51.938;15.520;2022-11-24T03:54:00;110.35;;;34.83;;
70420;SDS011;57848;51.938;15.520;2022-11-24T03:56:25;131.48;;;35.20;;
70420;SDS011;57848;51.938;15.520;2022-11-24T03:58:52;116.43;;;37.05;;
70420;SDS011;57848;51.938;15.520;2022-11-24T04:01:17;107.03;;;35.93;;
70420;SDS011;57848;51.938;15.520;2022-11-24T04:03:42;120.63;;;37.10;;
70420;SDS011;57848;51.938;15.520;2022-11-24T04:06:08;119.83;;;36.53;;
70420;SDS011;57848;51.938;15.520;2022-11-24T04:08:34;159.57;;;36.95;;
70420;SDS011;57848;51.938;15.520;2022-11-24T04:10:59;147.33;;;33.93;;
70420;SDS011;57848;51.938;15.520;2022-11-24T04:13:25;138.97;;;37.57;;
70420;SDS011;57848;51.938;15.520;2022-11-24T04:15:51;125.88;;;37.28;;
70420;SDS011;57848;51.938;15.520;2022-11-24T04:18:16;164.75;;;37.38;;
70420;SDS011;57848;51.938;15.520;2022-11-24T04:20:43;133.65;;;38.33;;
70420;SDS011;57848;51.938;15.520;2022-11-24T04:23:09;142.53;;;36.50;;
70420;SDS011;57848;51.938;15.520;2022-11-24T04:25:35;119.20;;;36.40;;
70420;SDS011;57848;51.938;15.520;2022-11-24T04:28:00;173.23;;;37.07;;
70420;SDS011;57848;51.938;15.520;2022-11-24T04:30:26;134.07;;;35.80;;
70420;SDS011;57848;51.938;15.520;2022-11-24T04:32:52;172.90;;;35.23;;
70420;SDS011;57848;51.938;15.520;2022-11-24T04:35:18;122.60;;;37.35;;
70420;SDS011;57848;51.938;15.520;2022-11-24T04:37:44;160.63;;;36.78;;
70420;SDS011;57848;51.938;15.520;2022-11-24T04:40:10;164.27;;;38.07;;
70420;SDS011;57848;51.938;15.520;2022-11-24T04:42:36;174.82;;;39.20;;
70420;SDS011;57848;51.938;15.520;2022-11-24T04:45:02;191.07;;;35.83;;
70420;SDS011;57848;51.938;15.520;2022-11-24T04:47:29;248.57;;;39.38;;
70420;SDS011;57848;51.938;15.520;2022-11-24T04:49:54;136.63;;;36.87;;
70420;SDS011;57848;51.938;15.520;2022-11-24T04:52:20;138.45;;;36.90;;
70420;SDS011;57848;51.938;15.520;2022-11-24T04:54:47;225.30;;;38.70;;
70420;SDS011;57848;51.938;15.520;2022-11-24T04:57:20;194.10;;;37.50;;
70420;SDS011;57848;51.938;15.520;2022-11-24T04:59:47;127.43;;;37.63;;
70420;SDS011;57848;51.938;15.520;2022-11-24T05:02:14;127.47;;;36.00;;
70420;SDS011;57848;51.938;15.520;2022-11-24T05:04:39;181.90;;;35.53;;
70420;SDS011;57848;51.938;15.520;2022-11-24T05:07:05;145.47;;;36.87;;
70420;SDS011;57848;51.938;15.520;2022-11-24T05:09:30;189.67;;;35.57;;
70420;SDS011;57848;51.938;15.520;2022-11-24T05:11:55;248.85;;;37.70;;
70420;SDS011;57848;51.938;15.520;2022-11-24T05:14:21;192.03;;;37.53;;
70420;SDS011;57848;51.938;15.520;2022-11-24T05:16:46;144.10;;;36.70;;
70420;SDS011;57848;51.938;15.520;2022-11-24T05:19:13;205.85;;;33.75;;
70420;SDS011;57848;51.938;15.520;2022-11-24T05:21:39;128.60;;;35.50;;
70420;SDS011;57848;51.938;15.520;2022-11-24T05:24:04;128.25;;;35.78;;
70420;SDS011;57848;51.938;15.520;2022-11-24T05:26:30;144.50;;;36.20;;
70420;SDS011;57848;51.938;15.520;2022-11-24T05:28:56;127.93;;;34.77;;
70420;SDS011;57848;51.938;15.520;2022-11-24T05:31:21;125.43;;;35.00;;
70420;SDS011;57848;51.938;15.520;2022-11-24T05:33:47;120.43;;;35.72;;
70420;SDS011;57848;51.938;15.520;2022-11-24T05:36:12;186.90;;;34.67;;
70420;SDS011;57848;51.938;15.520;2022-11-24T05:38:57;197.50;;;34.42;;
70420;SDS011;57848;51.938;15.520;2022-11-24T05:41:23;136.50;;;34.50;;
70420;SDS011;57848;51.938;15.520;2022-11-24T05:43:49;203.53;;;34.37;;
70420;SDS011;57848;51.938;15.520;2022-11-24T05:46:14;184.53;;;36.03;;
70420;SDS011;57848;51.938;15.520;2022-11-24T05:48:39;138.07;;;33.27;;
70420;SDS011;57848;51.938;15.520;2022-11-24T05:51:05;122.93;;;34.97;;
70420;SDS011;57848;51.938;15.520;2022-11-24T05:53:30;177.20;;;35.30;;
70420;SDS011;57848;51.938;15.520;2022-11-24T05:55:55;115.90;;;33.33;;
70420;SDS011;57848;51.938;15.520;2022-11-24T05:58:21;118.05;;;34.75;;
70420;SDS011;57848;51.938;15.520;2022-11-24T06:00:46;125.27;;;33.47;;
70420;SDS011;57848;51.938;15.520;2022-11-24T06:03:12;118.60;;;31.13;;
70420;SDS011;57848;51.938;15.520;2022-11-24T06:05:37;200.70;;;34.27;;
70420;SDS011;57848;51.938;15.520;2022-11-24T06:08:03;144.25;;;31.73;;
70420;SDS011;57848;51.938;15.520;2022-11-24T06:10:28;174.07;;;32.60;;
70420;SDS011;57848;51.938;15.520;2022-11-24T06:12:54;221.68;;;33.13;;
70420;SDS011;57848;51.938;15.520;2022-11-24T06:15:20;166.27;;;32.37;;
70420;SDS011;57848;51.938;15.520;2022-11-24T06:17:52;104.80;;;31.97;;
70420;SDS011;57848;51.938;15.520;2022-11-24T06:20:19;145.50;;;31.87;;
70420;SDS011;57848;51.938;15.520;2022-11-24T06:22:45;149.90;;;33.08;;
70420;SDS011;57848;51.938;15.520;2022-11-24T06:25:10;121.90;;;30.87;;
70420;SDS011;57848;51.938;15.520;2022-11-24T06:27:36;237.83;;;35.27;;
70420;SDS011;57848;51.938;15.520;2022-11-24T06:30:01;112.97;;;31.27;;
70420;SDS011;57848;51.938;15.520;2022-11-24T06:32:27;122.57;;;32.33;;
70420;SDS011;57848;51.938;15.520;2022-11-24T06:34:53;148.50;;;33.25;;
70420;SDS011;57848;51.938;15.520;2022-11-24T06:37:18;125.53;;;33.63;;
70420;SDS011;57848;51.938;15.520;2022-11-24T06:39:44;114.20;;;35.07;;
70420;SDS011;57848;51.938;15.520;2022-11-24T06:42:09;154.40;;;30.17;;
70420;SDS011;57848;51.938;15.520;2022-11-24T06:44:34;154.47;;;32.77;;
70420;SDS011;57848;51.938;15.520;2022-11-24T06:47:00;117.70;;;32.28;;
70420;SDS011;57848;51.938;15.520;2022-11-24T06:49:25;114.20;;;33.03;;
70420;SDS011;57848;51.938;15.520;2022-11-24T06:51:52;117.47;;;33.57;;
70420;SDS011;57848;51.938;15.520;2022-11-24T06:54:18;119.57;;;31.75;;
70420;SDS011;57848;51.938;15.520;2022-11-24T06:56:45;103.32;;;30.70;;
70420;SDS011;57848;51.938;15.520;2022-11-24T06:59:17;116.17;;;30.00;;
70420;SDS011;57848;51.938;15.520;2022-11-24T07:01:44;126.20;;;28.67;;
70420;SDS011;57848;51.938;15.520;2022-11-24T07:04:11;96.05;;;30.25;;
70420;SDS011;57848;51.938;15.520;2022-11-24T07:06:36;137.73;;;31.20;;
70420;SDS011;57848;51.938;15.520;2022-11-24T07:09:04;131.33;;;28.83;;
70420;SDS011;57848;51.938;15.520;2022-11-24T07:11:29;95.43;;;30.25;;
70420;SDS011;57848;51.938;15.520;2022-11-24T07:13:56;94.57;;;28.57;;
70420;SDS011;57848;51.938;15.520;2022-11-24T07:16:22;118.05;;;30.70;;
70420;SDS011;57848;51.938;15.520;2022-11-24T07:18:49;94.32;;;29.80;;
70420;SDS011;57848;51.938;15.520;2022-11-24T07:21:16;105.00;;;30.77;;
70420;SDS011;57848;51.938;15.520;2022-11-24T07:23:42;156.27;;;30.60;;
70420;SDS011;57848;51.938;15.520;2022-11-24T07:26:08;96.57;;;28.88;;
70420;SDS011;57848;51.938;15.520;2022-11-24T07:28:35;155.20;;;32.22;;
70420;SDS011;57848;51.938;15.520;2022-11-24T07:31:07;115.57;;;26.93;;
70420;SDS011;57848;51.938;15.520;2022-11-24T07:33:34;124.60;;;28.60;;
70420;SDS011;57848;51.938;15.520;2022-11-24T07:36:00;140.13;;;30.33;;
70420;SDS011;57848;51.938;15.520;2022-11-24T07:38:27;100.27;;;29.13;;
70420;SDS011;57848;51.938;15.520;2022-11-24T07:40:58;126.80;;;31.02;;
70420;SDS011;57848;51.938;15.520;2022-11-24T07:43:27;150.98;;;30.35;;
70420;SDS011;57848;51.938;15.520;2022-11-24T07:45:55;108.82;;;29.23;;
70420;SDS011;57848;51.938;15.520;2022-11-24T07:48:20;188.17;;;30.83;;
70420;SDS011;57848;51.938;15.520;2022-11-24T07:50:46;112.78;;;28.17;;
70420;SDS011;57848;51.938;15.520;2022-11-24T07:53:12;137.00;;;33.77;;
70420;SDS011;57848;51.938;15.520;2022-11-24T07:55:37;166.93;;;33.97;;
70420;SDS011;57848;51.938;15.520;2022-11-24T07:58:02;201.20;;;34.37;;
70420;SDS011;57848;51.938;15.520;2022-11-24T08:00:28;200.50;;;34.23;;
70420;SDS011;57848;51.938;15.520;2022-11-24T08:02:53;163.17;;;31.87;;
70420;SDS011;57848;51.938;15.520;2022-11-24T08:05:19;155.67;;;31.47;;
70420;SDS011;57848;51.938;15.520;2022-11-24T08:07:45;150.40;;;33.47;;
70420;SDS011;57848;51.938;15.520;2022-11-24T08:10:10;115.07;;;31.05;;
70420;SDS011;57848;51.938;15.520;2022-11-24T08:12:36;125.40;;;31.13;;
70420;SDS011;57848;51.938;15.520;2022-11-24T08:15:01;139.57;;;30.92;;
70420;SDS011;57848;51.938;15.520;2022-11-24T08:17:27;174.67;;;28.10;;
70420;SDS011;57848;51.938;15.520;2022-11-24T08:19:53;186.75;;;31.17;;
70420;SDS011;57848;51.938;15.520;2022-11-24T08:22:18;158.40;;;31.43;;
70420;SDS011;57848;51.938;15.520;2022-11-24T08:24:44;191.85;;;32.05;;
70420;SDS011;57848;51.938;15.520;2022-11-24T08:27:13;113.03;;;30.77;;
70420;SDS011;57848;51.938;15.520;2022-11-24T08:29:42;147.00;;;30.83;;
70420;SDS011;57848;51.938;15.520;2022-11-24T08:32:08;96.15;;;31.55;;
70420;SDS011;57848;51.938;15.520;2022-11-24T08:34:34;150.87;;;31.33;;
70420;SDS011;57848;51.938;15.520;2022-11-24T08:36:59;101.30;;;28.70;;
70420;SDS011;57848;51.938;15.520;2022-11-24T08:39:26;138.73;;;30.57;;
70420;SDS011;57848;51.938;15.520;2022-11-24T08:41:52;133.88;;;27.63;;
70420;SDS011;57848;51.938;15.520;2022-11-24T08:44:17;111.27;;;29.60;;
70420;SDS011;57848;51.938;15.520;2022-11-24T08:46:43;136.43;;;30.77;;
70420;SDS011;57848;51.938;15.520;2022-11-24T08:49:09;137.07;;;29.52;;
70420;SDS011;57848;51.938;15.520;2022-11-24T08:51:35;148.30;;;27.23;;
70420;SDS011;57848;51.938;15.520;2022-11-24T08:54:00;138.00;;;28.15;;
70420;SDS011;57848;51.938;15.520;2022-11-24T08:56:27;110.38;;;28.27;;
70420;SDS011;57848;51.938;15.520;2022-11-24T08:58:54;131.47;;;27.57;;
70420;SDS011;57848;51.938;15.520;2022-11-24T09:01:20;83.15;;;26.92;;
70420;SDS011;57848;51.938;15.520;2022-11-24T09:03:46;90.10;;;27.67;;
70420;SDS011;57848;51.938;15.520;2022-11-24T09:06:14;108.57;;;27.63;;
70420;SDS011;57848;51.938;15.520;2022-11-24T09:08:40;97.72;;;26.67;;
70420;SDS011;57848;51.938;15.520;2022-11-24T09:11:09;96.93;;;28.45;;
70420;SDS011;57848;51.938;15.520;2022-11-24T09:13:37;83.63;;;28.00;;
70420;SDS011;57848;51.938;15.520;2022-11-24T09:16:03;89.88;;;26.52;;
70420;SDS011;57848;51.938;15.520;2022-11-24T09:18:31;88.88;;;27.95;;
70420;SDS011;57848;51.938;15.520;2022-11-24T09:23:39;99.72;;;27.08;;
70420;SDS011;57848;51.938;15.520;2022-11-24T09:26:09;78.03;;;26.17;;
70420;SDS011;57848;51.938;15.520;2022-11-24T09:28:42;83.78;;;27.23;;
70420;SDS011;57848;51.938;15.520;2022-11-24T09:31:09;80.55;;;26.13;;
70420;SDS011;57848;51.938;15.520;2022-11-24T09:33:37;82.43;;;27.75;;
70420;SDS011;57848;51.938;15.520;2022-11-24T09:36:03;85.53;;;28.43;;
70420;SDS011;57848;51.938;15.520;2022-11-24T09:38:28;77.70;;;27.10;;
70420;SDS011;57848;51.938;15.520;2022-11-24T09:40:54;122.50;;;26.33;;
70420;SDS011;57848;51.938;15.520;2022-11-24T09:45:50;140.33;;;27.47;;
70420;SDS011;57848;51.938;15.520;2022-11-24T09:48:31;93.68;;;28.80;;
70420;SDS011;57848;51.938;15.520;2022-11-24T09:51:00;120.95;;;28.85;;
70420;SDS011;57848;51.938;15.520;2022-11-24T09:56:22;102.80;;;25.67;;
70420;SDS011;57848;51.938;15.520;2022-11-24T09:58:58;101.93;;;26.97;;
70420;SDS011;57848;51.938;15.520;2022-11-24T10:01:30;94.47;;;26.50;;
70420;SDS011;57848;51.938;15.520;2022-11-24T10:03:58;116.60;;;25.85;;
70420;SDS011;57848;51.938;15.520;2022-11-24T10:11:40;116.07;;;27.80;;
70420;SDS011;57848;51.938;15.520;2022-11-24T10:17:01;83.65;;;25.65;;
70420;SDS011;57848;51.938;15.520;2022-11-24T10:19:56;74.43;;;25.10;;
70420;SDS011;57848;51.938;15.520;2022-11-24T10:28:01;84.18;;;27.23;;
70420;SDS011;57848;51.938;15.520;2022-11-24T10:30:28;82.10;;;27.02;;
70420;SDS011;57848;51.938;15.520;2022-11-24T10:33:06;83.07;;;24.97;;
70420;SDS011;57848;51.938;15.520;2022-11-24T10:35:42;79.18;;;26.40;;
70420;SDS011;57848;51.938;15.520;2022-11-24T10:41:04;87.30;;;28.30;;
70420;SDS011;57848;51.938;15.520;2022-11-24T10:43:34;85.13;;;26.70;;
70420;SDS011;57848;51.938;15.520;2022-11-24T10:46:10;87.47;;;26.47;;
70420;SDS011;57848;51.938;15.520;2022-11-24T10:48:40;78.70;;;26.13;;
70420;SDS011;57848;51.938;15.520;2022-11-24T10:52:11;81.07;;;28.90;;
70420;SDS011;57848;51.938;15.520;2022-11-24T10:54:16;89.97;;;28.70;;
70420;SDS011;57848;51.938;15.520;2022-11-24T10:56:43;76.20;;;28.30;;
70420;SDS011;57848;51.938;15.520;2022-11-24T10:59:29;74.00;;;29.42;;
70420;SDS011;57848;51.938;15.520;2022-11-24T11:01:57;75.22;;;26.45;;
70420;SDS011;57848;51.938;15.520;2022-11-24T11:04:27;79.37;;;25.90;;
70420;SDS011;57848;51.938;15.520;2022-11-24T11:07:15;76.40;;;27.98;;
70420;SDS011;57848;51.938;15.520;2022-11-24T11:09:45;84.32;;;28.38;;
70420;SDS011;57848;51.938;15.520;2022-11-24T11:12:19;79.65;;;29.48;;
70420;SDS011;57848;51.938;15.520;2022-11-24T11:14:46;82.07;;;27.38;;
70420;SDS011;57848;51.938;15.520;2022-11-24T11:22:49;77.47;;;25.88;;
70420;SDS011;57848;51.938;15.520;2022-11-24T11:27:46;81.50;;;26.70;;
70420;SDS011;57848;51.938;15.520;2022-11-24T11:30:16;81.18;;;27.05;;
70420;SDS011;57848;51.938;15.520;2022-11-24T11:32:58;70.03;;;26.33;;
70420;SDS011;57848;51.938;15.520;2022-11-24T11:35:27;81.65;;;28.42;;
70420;SDS011;57848;51.938;15.520;2022-11-24T11:37:58;77.80;;;27.43;;
70420;SDS011;57848;51.938;15.520;2022-11-24T11:40:27;68.78;;;26.00;;
70420;SDS011;57848;51.938;15.520;2022-11-24T11:45:40;73.45;;;25.30;;
70420;SDS011;57848;51.938;15.520;2022-11-24T11:50:57;65.33;;;26.50;;
70420;SDS011;57848;51.938;15.520;2022-11-24T12:01:32;72.80;;;28.77;;
70420;SDS011;57848;51.938;15.520;2022-11-24T12:04:23;76.00;;;27.57;;
70420;SDS011;57848;51.938;15.520;2022-11-24T12:18:17;66.67;;;25.83;;
70420;SDS011;57848;51.938;15.520;2022-11-24T12:45:57;73.53;;;28.75;;
70420;SDS011;57848;51.938;15.520;2022-11-24T12:48:27;72.67;;;29.03;;
70420;SDS011;57848;51.938;15.520;2022-11-24T12:51:01;78.95;;;29.30;;
70420;SDS011;57848;51.938;15.520;2022-11-24T12:53:33;77.53;;;27.33;;
70420;SDS011;57848;51.938;15.520;2022-11-24T12:56:05;76.57;;;27.55;;
70420;SDS011;57848;51.938;15.520;2022-11-24T13:03:48;83.20;;;30.17;;
70420;SDS011;57848;51.938;15.520;2022-11-24T13:06:42;74.50;;;28.92;;
70420;SDS011;57848;51.938;15.520;2022-11-24T13:09:17;79.43;;;28.48;;
70420;SDS011;57848;51.938;15.520;2022-11-24T13:11:44;75.83;;;29.90;;
70420;SDS011;57848;51.938;15.520;2022-11-24T13:14:14;73.55;;;27.02;;
70420;SDS011;57848;51.938;15.520;2022-11-24T13:16:57;79.28;;;27.85;;
70420;SDS011;57848;51.938;15.520;2022-11-24T13:19:29;74.65;;;28.08;;
70420;SDS011;57848;51.938;15.520;2022-11-24T13:24:31;67.80;;;26.77;;
70420;SDS011;57848;51.938;15.520;2022-11-24T13:29:51;71.68;;;26.67;;
70420;SDS011;57848;51.938;15.520;2022-11-24T13:39:48;74.78;;;28.42;;
70420;SDS011;57848;51.938;15.520;2022-11-24T13:42:14;76.03;;;28.47;;
70420;SDS011;57848;51.938;15.520;2022-11-24T13:44:44;71.43;;;28.17;;
70420;SDS011;57848;51.938;15.520;2022-11-24T13:53:13;67.38;;;25.17;;
70420;SDS011;57848;51.938;15.520;2022-11-24T13:55:41;71.68;;;27.92;;
70420;SDS011;57848;51.938;15.520;2022-11-24T13:58:29;70.78;;;27.35;;
70420;SDS011;57848;51.938;15.520;2022-11-24T14:03:37;76.45;;;26.65;;
70420;SDS011;57848;51.938;15.520;2022-11-24T14:06:20;68.03;;;25.55;;
70420;SDS011;57848;51.938;15.520;2022-11-24T14:08:53;75.63;;;26.17;;
70420;SDS011;57848;51.938;15.520;2022-11-24T14:11:20;76.28;;;27.70;;
70420;SDS011;57848;51.938;15.520;2022-11-24T14:13:46;69.97;;;26.87;;
70420;SDS011;57848;51.938;15.520;2022-11-24T14:16:13;64.70;;;24.83;;
70420;SDS011;57848;51.938;15.520;2022-11-24T14:18:47;67.40;;;27.23;;
70420;SDS011;57848;51.938;15.520;2022-11-24T14:21:35;71.67;;;27.30;;
70420;SDS011;57848;51.938;15.520;2022-11-24T14:24:12;65.45;;;24.98;;
70420;SDS011;57848;51.938;15.520;2022-11-24T14:26:47;65.38;;;26.80;;
70420;SDS011;57848;51.938;15.520;2022-11-24T14:29:14;66.68;;;25.42;;
70420;SDS011;57848;51.938;15.520;2022-11-24T14:31:41;77.15;;;30.33;;
70420;SDS011;57848;51.938;15.520;2022-11-24T14:36:36;65.53;;;28.10;;
70420;SDS011;57848;51.938;15.520;2022-11-24T14:39:02;66.68;;;27.63;;
70420;SDS011;57848;51.938;15.520;2022-11-24T14:41:28;65.87;;;26.10;;
70420;SDS011;57848;51.938;15.520;2022-11-24T14:44:04;64.55;;;27.67;;
70420;SDS011;57848;51.938;15.520;2022-11-24T14:46:30;77.28;;;29.15;;
70420;SDS011;57848;51.938;15.520;2022-11-24T14:48:55;72.67;;;30.90;;
70420;SDS011;57848;51.938;15.520;2022-11-24T14:51:31;76.07;;;31.35;;
70420;SDS011;57848;51.938;15.520;2022-11-24T14:54:00;75.43;;;30.45;;
70420;SDS011;57848;51.938;15.520;2022-11-24T14:56:28;75.40;;;29.90;;
70420;SDS011;57848;51.938;15.520;2022-11-24T14:58:54;84.45;;;31.45;;
70420;SDS011;57848;51.938;15.520;2022-11-24T15:01:27;78.80;;;31.15;;
70420;SDS011;57848;51.938;15.520;2022-11-24T15:06:40;75.82;;;29.60;;
70420;SDS011;57848;51.938;15.520;2022-11-24T15:11:49;74.18;;;31.08;;
70420;SDS011;57848;51.938;15.520;2022-11-24T15:14:35;75.45;;;30.20;;
70420;SDS011;57848;51.938;15.520;2022-11-24T15:17:13;72.67;;;29.33;;
70420;SDS011;57848;51.938;15.520;2022-11-24T15:19:44;70.65;;;28.17;;
70420;SDS011;57848;51.938;15.520;2022-11-24T15:22:32;71.15;;;29.05;;
70420;SDS011;57848;51.938;15.520;2022-11-24T15:24:59;82.47;;;33.53;;
70420;SDS011;57848;51.938;15.520;2022-11-24T15:27:25;82.60;;;34.97;;
70420;SDS011;57848;51.938;15.520;2022-11-24T15:29:50;83.17;;;34.53;;
70420;SDS011;57848;51.938;15.520;2022-11-24T15:32:16;98.23;;;41.67;;
70420;SDS011;57848;51.938;15.520;2022-11-24T15:34:42;99.83;;;41.87;;
70420;SDS011;57848;51.938;15.520;2022-11-24T15:37:08;103.72;;;45.40;;
70420;SDS011;57848;51.938;15.520;2022-11-24T15:39:33;102.77;;;40.23;;
70420;SDS011;57848;51.938;15.520;2022-11-24T15:41:58;112.63;;;44.60;;
70420;SDS011;57848;51.938;15.520;2022-11-24T15:44:24;91.23;;;37.77;;
70420;SDS011;57848;51.938;15.520;2022-11-24T15:46:50;114.30;;;41.92;;
70420;SDS011;57848;51.938;15.520;2022-11-24T15:49:15;140.87;;;46.63;;
70420;SDS011;57848;51.938;15.520;2022-11-24T15:51:41;137.20;;;47.43;;
70420;SDS011;57848;51.938;15.520;2022-11-24T15:54:13;132.18;;;48.10;;
70420;SDS011;57848;51.938;15.520;2022-11-24T15:56:40;112.85;;;42.58;;
70420;SDS011;57848;51.938;15.520;2022-11-24T15:59:09;105.27;;;41.20;;
70420;SDS011;57848;51.938;15.520;2022-11-24T16:01:37;157.77;;;51.47;;
70420;SDS011;57848;51.938;15.520;2022-11-24T16:04:03;169.67;;;52.50;;
70420;SDS011;57848;51.938;15.520;2022-11-24T16:06:28;146.17;;;52.23;;
70420;SDS011;57848;51.938;15.520;2022-11-24T16:08:54;147.40;;;49.90;;
70420;SDS011;57848;51.938;15.520;2022-11-24T16:11:20;124.80;;;44.70;;